createdAt,value
2018-05-06T19:37:10.492Z,12.97
2018-05-06T19:40:06.980Z,13.60
2018-05-06T19:42:44.769Z,18.95
2018-05-06T19:45:19.949Z,20.63
2018-05-06T19:47:51.713Z,16.95
2018-05-06T19:50:31.673Z,14.80
2018-05-06T19:53:06.028Z,14.85
2018-05-06T19:55:38.933Z,12.65
2018-05-06T19:58:10.120Z,11.50
2018-05-06T20:01:15.238Z,9.30
2018-05-06T20:03:46.543Z,7.50
2018-05-06T20:06:17.450Z,21.15
2018-05-06T20:08:48.490Z,5.37
2018-05-06T20:11:19.771Z,7.35
2018-05-06T20:13:52.030Z,5.87
2018-05-06T20:16:24.654Z,5.85
2018-05-06T20:18:57.151Z,6.13
2018-05-06T20:21:27.468Z,18.42
2018-05-06T20:23:57.853Z,15.75
2018-05-06T20:26:29.484Z,11.10
2018-05-06T20:29:01.600Z,11.00
2018-05-06T20:31:33.783Z,7.28
2018-05-06T20:34:05.451Z,6.07
2018-05-06T20:36:38.269Z,5.80
2018-05-06T20:39:10.126Z,5.80
2018-05-06T20:41:43.659Z,5.00
2018-05-06T20:44:15.265Z,4.70
2018-05-06T20:46:47.746Z,4.10
2018-05-06T20:49:18.672Z,4.20
2018-05-06T20:51:49.535Z,4.18
2018-05-06T20:54:20.481Z,4.43
2018-05-06T20:56:50.690Z,4.47
2018-05-06T20:59:22.575Z,4.97
2018-05-06T21:01:53.116Z,5.00
2018-05-06T21:04:24.808Z,5.10
2018-05-06T21:06:55.186Z,5.30
2018-05-06T21:09:25.784Z,5.20
2018-05-06T21:11:56.192Z,5.07
2018-05-06T21:14:28.507Z,4.90
2018-05-06T21:16:58.830Z,5.10
2018-05-06T21:19:30.564Z,4.90
2018-05-06T21:22:01.440Z,5.40
2018-05-06T21:24:32.483Z,5.20
2018-05-06T21:27:03.918Z,3.83
2018-05-06T21:29:35.116Z,3.80
2018-05-06T21:32:06.138Z,4.70
2018-05-06T21:34:37.268Z,4.70
2018-05-06T21:37:08.496Z,5.18
2018-05-06T21:39:39.597Z,4.82
2018-05-06T21:42:10.036Z,5.40
2018-05-06T21:44:40.282Z,5.65
2018-05-06T21:47:10.880Z,4.97
2018-05-06T21:49:41.315Z,4.80
2018-05-06T21:52:12.191Z,5.72
2018-05-06T21:54:43.312Z,4.90
2018-05-06T21:57:13.487Z,4.78
2018-05-06T21:59:43.866Z,5.22
2018-05-06T22:02:14.485Z,5.32
2018-05-06T22:04:44.671Z,5.25
2018-05-06T22:07:15.035Z,5.03
2018-05-06T22:09:45.691Z,5.80
2018-05-06T22:12:16.572Z,5.80
2018-05-06T22:14:48.363Z,5.70
2018-05-06T22:17:19.392Z,5.50
2018-05-06T22:19:50.387Z,4.47
2018-05-06T22:22:20.970Z,5.10
2018-05-06T22:24:51.269Z,5.05
2018-05-06T22:27:22.131Z,4.65
2018-05-06T22:29:52.411Z,4.20
2018-05-06T22:32:22.612Z,4.50
2018-05-06T22:34:53.795Z,4.57
2018-05-06T22:37:23.931Z,7.10
2018-05-06T22:39:54.851Z,9.32
2018-05-06T22:42:25.564Z,7.43
2018-05-06T22:44:56.827Z,6.10
2018-05-06T22:47:26.960Z,5.45
2018-05-06T22:49:57.478Z,5.00
2018-05-06T22:52:28.599Z,5.10
2018-05-06T22:54:59.695Z,5.97
2018-05-06T22:57:30.206Z,5.10
2018-05-06T23:00:01.828Z,6.68
2018-05-06T23:02:33.076Z,6.57
2018-05-06T23:05:03.735Z,7.53
2018-05-06T23:07:33.959Z,6.87
2018-05-06T23:10:06.054Z,6.20
2018-05-06T23:12:36.334Z,4.78
2018-05-06T23:15:06.520Z,4.10
2018-05-06T23:17:37.114Z,4.40
2018-05-06T23:20:07.285Z,4.85
2018-05-06T23:22:37.743Z,3.70
2018-05-06T23:25:07.849Z,5.40
2018-05-06T23:27:38.822Z,4.75
2018-05-06T23:30:09.290Z,6.00
2018-05-06T23:32:39.720Z,7.37
2018-05-06T23:35:10.084Z,6.28
2018-05-06T23:37:42.672Z,6.17
2018-05-06T23:40:13.282Z,5.50
2018-05-06T23:42:43.780Z,5.05
2018-05-06T23:45:14.607Z,4.80
2018-05-06T23:47:45.004Z,5.32
2018-05-06T23:50:15.903Z,4.72
2018-05-06T23:52:46.540Z,4.80
2018-05-06T23:55:17.572Z,5.87
2018-05-06T23:57:48.187Z,4.80
